sensor_id;sensor_type;location;lat;lon;timestamp;P1;durP1;ratioP1;P2;durP2;ratioP2
11066;SDS011;29763;50.904;5.530;2023-06-22T00:00:25;3.97;;;3.40;;
11066;SDS011;29763;50.904;5.530;2023-06-22T00:02:55;4.55;;;3.58;;
11066;SDS011;29763;50.904;5.530;2023-06-22T00:05:21;3.80;;;3.50;;
11066;SDS011;29763;50.904;5.530;2023-06-22T00:07:48;3.80;;;3.40;;
11066;SDS011;29763;50.904;5.530;2023-06-22T00:10:14;3.33;;;3.13;;
11066;SDS011;29763;50.904;5.530;2023-06-22T00:12:42;4.60;;;3.60;;
11066;SDS011;29763;50.904;5.530;2023-06-22T00:15:15;3.50;;;3.20;;
11066;SDS011;29763;50.904;5.530;2023-06-22T00:17:46;3.58;;;3.25;;
11066;SDS011;29763;50.904;5.530;2023-06-22T00:20:12;4.00;;;3.63;;
11066;SDS011;29763;50.904;5.530;2023-06-22T00:22:43;3.60;;;3.28;;
11066;SDS011;29763;50.904;5.530;2023-06-22T00:25:30;3.67;;;3.38;;
11066;SDS011;29763;50.904;5.530;2023-06-22T00:27:59;3.72;;;3.42;;
11066;SDS011;29763;50.904;5.530;2023-06-22T00:30:26;4.70;;;3.67;;
11066;SDS011;29763;50.904;5.530;2023-06-22T00:32:52;3.15;;;2.88;;
11066;SDS011;29763;50.904;5.530;2023-06-22T00:35:19;3.50;;;3.20;;
11066;SDS011;29763;50.904;5.530;2023-06-22T00:37:46;4.28;;;3.22;;
11066;SDS011;29763;50.904;5.530;2023-06-22T00:40:12;3.70;;;3.40;;
11066;SDS011;29763;50.904;5.530;2023-06-22T00:42:42;3.55;;;3.22;;
11066;SDS011;29763;50.904;5.530;2023-06-22T00:45:09;4.35;;;3.42;;
11066;SDS011;29763;50.904;5.530;2023-06-22T00:47:38;3.55;;;3.17;;
11066;SDS011;29763;50.904;5.530;2023-06-22T00:50:05;3.67;;;3.17;;
11066;SDS011;29763;50.904;5.530;2023-06-22T00:52:36;4.28;;;3.20;;
11066;SDS011;29763;50.904;5.530;2023-06-22T00:55:02;4.05;;;3.20;;
11066;SDS011;29763;50.904;5.530;2023-06-22T00:57:28;3.58;;;3.28;;
11066;SDS011;29763;50.904;5.530;2023-06-22T01:00:01;3.80;;;3.45;;
11066;SDS011;29763;50.904;5.530;2023-06-22T01:02:36;3.53;;;3.20;;
11066;SDS011;29763;50.904;5.530;2023-06-22T01:05:04;4.07;;;3.28;;
11066;SDS011;29763;50.904;5.530;2023-06-22T01:13:35;3.45;;;3.15;;
11066;SDS011;29763;50.904;5.530;2023-06-22T01:16:29;3.90;;;3.50;;
11066;SDS011;29763;50.904;5.530;2023-06-22T01:19:07;4.35;;;3.40;;
11066;SDS011;29763;50.904;5.530;2023-06-22T01:21:47;3.53;;;3.20;;
11066;SDS011;29763;50.904;5.530;2023-06-22T01:24:23;4.35;;;3.30;;
11066;SDS011;29763;50.904;5.530;2023-06-22T01:29:40;4.68;;;3.85;;
11066;SDS011;29763;50.904;5.530;2023-06-22T01:32:08;4.25;;;3.85;;
11066;SDS011;29763;50.904;5.530;2023-06-22T01:34:43;3.65;;;3.33;;
11066;SDS011;29763;50.904;5.530;2023-06-22T01:37:11;4.28;;;3.45;;
11066;SDS011;29763;50.904;5.530;2023-06-22T01:39:36;4.97;;;4.13;;
11066;SDS011;29763;50.904;5.530;2023-06-22T01:42:03;4.97;;;4.20;;
11066;SDS011;29763;50.904;5.530;2023-06-22T01:44:32;4.63;;;4.15;;
11066;SDS011;29763;50.904;5.530;2023-06-22T01:47:02;5.85;;;4.28;;
11066;SDS011;29763;50.904;5.530;2023-06-22T01:49:28;4.60;;;4.20;;
11066;SDS011;29763;50.904;5.530;2023-06-22T01:51:58;5.65;;;4.38;;
11066;SDS011;29763;50.904;5.530;2023-06-22T01:54:27;6.18;;;4.82;;
11066;SDS011;29763;50.904;5.530;2023-06-22T01:56:57;6.55;;;5.18;;
11066;SDS011;29763;50.904;5.530;2023-06-22T01:59:28;6.13;;;5.53;;
11066;SDS011;29763;50.904;5.530;2023-06-22T02:02:18;8.57;;;6.00;;
11066;SDS011;29763;50.904;5.530;2023-06-22T02:05:19;6.75;;;6.15;;
11066;SDS011;29763;50.904;5.530;2023-06-22T02:07:44;8.10;;;6.90;;
11066;SDS011;29763;50.904;5.530;2023-06-22T02:10:15;6.78;;;5.78;;
11066;SDS011;29763;50.904;5.530;2023-06-22T02:12:45;7.13;;;6.43;;
11066;SDS011;29763;50.904;5.530;2023-06-22T02:15:13;7.40;;;6.70;;
11066;SDS011;29763;50.904;5.530;2023-06-22T02:17:45;8.10;;;6.85;;
11066;SDS011;29763;50.904;5.530;2023-06-22T02:20:17;7.72;;;7.03;;
11066;SDS011;29763;50.904;5.530;2023-06-22T02:22:50;7.65;;;6.85;;
11066;SDS011;29763;50.904;5.530;2023-06-22T02:25:19;7.65;;;6.95;;
11066;SDS011;29763;50.904;5.530;2023-06-22T02:27:48;7.78;;;6.97;;
11066;SDS011;29763;50.904;5.530;2023-06-22T02:30:16;8.32;;;7.53;;
11066;SDS011;29763;50.904;5.530;2023-06-22T02:32:42;9.90;;;8.90;;
11066;SDS011;29763;50.904;5.530;2023-06-22T02:35:08;9.68;;;8.77;;
11066;SDS011;29763;50.904;5.530;2023-06-22T02:37:36;9.48;;;8.57;;
11066;SDS011;29763;50.904;5.530;2023-06-22T02:40:04;9.98;;;8.98;;
11066;SDS011;29763;50.904;5.530;2023-06-22T02:42:35;9.90;;;8.63;;
11066;SDS011;29763;50.904;5.530;2023-06-22T02:45:05;9.88;;;8.88;;
11066;SDS011;29763;50.904;5.530;2023-06-22T02:47:31;10.18;;;9.20;;
11066;SDS011;29763;50.904;5.530;2023-06-22T02:49:57;11.13;;;10.05;;
11066;SDS011;29763;50.904;5.530;2023-06-22T02:52:25;10.95;;;9.93;;
11066;SDS011;29763;50.904;5.530;2023-06-22T02:54:52;11.95;;;10.43;;
11066;SDS011;29763;50.904;5.530;2023-06-22T02:57:19;11.95;;;10.77;;
11066;SDS011;29763;50.904;5.530;2023-06-22T02:59:47;11.27;;;10.18;;
11066;SDS011;29763;50.904;5.530;2023-06-22T03:02:14;11.90;;;10.70;;
11066;SDS011;29763;50.904;5.530;2023-06-22T03:04:41;12.48;;;11.18;;
11066;SDS011;29763;50.904;5.530;2023-06-22T03:07:10;11.45;;;10.45;;
11066;SDS011;29763;50.904;5.530;2023-06-22T03:09:37;11.55;;;10.40;;
11066;SDS011;29763;50.904;5.530;2023-06-22T03:12:10;12.88;;;11.68;;
11066;SDS011;29763;50.904;5.530;2023-06-22T03:14:36;13.65;;;11.80;;
11066;SDS011;29763;50.904;5.530;2023-06-22T03:17:02;14.10;;;12.23;;
11066;SDS011;29763;50.904;5.530;2023-06-22T03:19:37;13.48;;;12.25;;
11066;SDS011;29763;50.904;5.530;2023-06-22T03:22:11;13.57;;;12.23;;
11066;SDS011;29763;50.904;5.530;2023-06-22T03:24:37;14.27;;;12.82;;
11066;SDS011;29763;50.904;5.530;2023-06-22T03:27:05;15.30;;;13.02;;
11066;SDS011;29763;50.904;5.530;2023-06-22T03:29:38;14.82;;;13.43;;
11066;SDS011;29763;50.904;5.530;2023-06-22T03:32:03;14.98;;;13.48;;
11066;SDS011;29763;50.904;5.530;2023-06-22T03:34:32;15.45;;;13.68;;
11066;SDS011;29763;50.904;5.530;2023-06-22T03:37:03;15.50;;;13.93;;
11066;SDS011;29763;50.904;5.530;2023-06-22T03:39:31;16.20;;;14.68;;
11066;SDS011;29763;50.904;5.530;2023-06-22T03:42:05;17.10;;;15.30;;
11066;SDS011;29763;50.904;5.530;2023-06-22T03:44:35;16.33;;;14.73;;
11066;SDS011;29763;50.904;5.530;2023-06-22T03:47:02;16.95;;;15.25;;
11066;SDS011;29763;50.904;5.530;2023-06-22T03:49:29;16.67;;;15.02;;
11066;SDS011;29763;50.904;5.530;2023-06-22T03:52:01;16.63;;;15.05;;
11066;SDS011;29763;50.904;5.530;2023-06-22T03:54:32;17.40;;;15.40;;
11066;SDS011;29763;50.904;5.530;2023-06-22T03:56:58;17.23;;;15.63;;
11066;SDS011;29763;50.904;5.530;2023-06-22T03:59:32;16.27;;;14.68;;
11066;SDS011;29763;50.904;5.530;2023-06-22T04:02:00;16.27;;;14.57;;
11066;SDS011;29763;50.904;5.530;2023-06-22T04:04:33;15.80;;;14.20;;
11066;SDS011;29763;50.904;5.530;2023-06-22T04:07:05;14.63;;;13.18;;
11066;SDS011;29763;50.904;5.530;2023-06-22T04:09:33;15.93;;;14.30;;
11066;SDS011;29763;50.904;5.530;2023-06-22T04:12:02;18.73;;;14.75;;
11066;SDS011;29763;50.904;5.530;2023-06-22T04:14:32;23.52;;;16.02;;
11066;SDS011;29763;50.904;5.530;2023-06-22T04:16:59;20.77;;;15.57;;
11066;SDS011;29763;50.904;5.530;2023-06-22T04:19:25;19.67;;;15.90;;
11066;SDS011;29763;50.904;5.530;2023-06-22T04:21:55;20.77;;;16.98;;
11066;SDS011;29763;50.904;5.530;2023-06-22T04:24:27;16.75;;;15.13;;
11066;SDS011;29763;50.904;5.530;2023-06-22T04:26:53;16.90;;;15.30;;
11066;SDS011;29763;50.904;5.530;2023-06-22T04:29:21;16.33;;;14.73;;
11066;SDS011;29763;50.904;5.530;2023-06-22T04:31:53;18.02;;;16.25;;
11066;SDS011;29763;50.904;5.530;2023-06-22T04:34:23;18.17;;;16.25;;
11066;SDS011;29763;50.904;5.530;2023-06-22T04:36:56;21.20;;;18.77;;
11066;SDS011;29763;50.904;5.530;2023-06-22T04:39:22;20.48;;;18.35;;
11066;SDS011;29763;50.904;5.530;2023-06-22T04:41:49;21.08;;;17.73;;
11066;SDS011;29763;50.904;5.530;2023-06-22T04:44:35;22.27;;;19.90;;
11066;SDS011;29763;50.904;5.530;2023-06-22T04:47:13;23.83;;;21.33;;
11066;SDS011;29763;50.904;5.530;2023-06-22T04:49:47;24.30;;;22.00;;
11066;SDS011;29763;50.904;5.530;2023-06-22T04:52:13;24.92;;;22.35;;
11066;SDS011;29763;50.904;5.530;2023-06-22T04:54:42;24.38;;;21.98;;
11066;SDS011;29763;50.904;5.530;2023-06-22T04:57:20;25.73;;;23.08;;
11066;SDS011;29763;50.904;5.530;2023-06-22T04:59:55;27.92;;;24.88;;
11066;SDS011;29763;50.904;5.530;2023-06-22T05:02:22;27.88;;;25.17;;
11066;SDS011;29763;50.904;5.530;2023-06-22T05:04:56;28.52;;;25.73;;
11066;SDS011;29763;50.904;5.530;2023-06-22T05:07:23;29.35;;;26.27;;
11066;SDS011;29763;50.904;5.530;2023-06-22T05:09:50;28.02;;;25.27;;
11066;SDS011;29763;50.904;5.530;2023-06-22T05:12:16;29.45;;;26.45;;
11066;SDS011;29763;50.904;5.530;2023-06-22T05:14:43;29.30;;;26.33;;
11066;SDS011;29763;50.904;5.530;2023-06-22T05:17:25;30.33;;;26.90;;
11066;SDS011;29763;50.904;5.530;2023-06-22T05:19:56;30.88;;;27.55;;
11066;SDS011;29763;50.904;5.530;2023-06-22T05:25:07;30.92;;;27.65;;
11066;SDS011;29763;50.904;5.530;2023-06-22T05:27:44;31.50;;;28.25;;
11066;SDS011;29763;50.904;5.530;2023-06-22T05:30:35;30.08;;;27.02;;
11066;SDS011;29763;50.904;5.530;2023-06-22T05:33:04;29.10;;;26.00;;
11066;SDS011;29763;50.904;5.530;2023-06-22T05:35:30;29.17;;;26.27;;
11066;SDS011;29763;50.904;5.530;2023-06-22T05:37:56;27.83;;;25.17;;
11066;SDS011;29763;50.904;5.530;2023-06-22T05:40:28;28.65;;;25.92;;
11066;SDS011;29763;50.904;5.530;2023-06-22T05:42:57;28.27;;;25.42;;
11066;SDS011;29763;50.904;5.530;2023-06-22T05:45:25;28.20;;;25.42;;
11066;SDS011;29763;50.904;5.530;2023-06-22T05:47:57;29.27;;;26.48;;
11066;SDS011;29763;50.904;5.530;2023-06-22T05:50:23;27.40;;;24.73;;
11066;SDS011;29763;50.904;5.530;2023-06-22T05:52:58;28.83;;;25.83;;
11066;SDS011;29763;50.904;5.530;2023-06-22T05:55:38;30.55;;;27.33;;
11066;SDS011;29763;50.904;5.530;2023-06-22T05:58:06;30.25;;;27.17;;
11066;SDS011;29763;50.904;5.530;2023-06-22T06:00:32;30.17;;;26.98;;
11066;SDS011;29763;50.904;5.530;2023-06-22T06:02:58;31.48;;;28.25;;
11066;SDS011;29763;50.904;5.530;2023-06-22T06:05:32;30.40;;;27.45;;
11066;SDS011;29763;50.904;5.530;2023-06-22T06:08:03;29.40;;;26.58;;
11066;SDS011;29763;50.904;5.530;2023-06-22T06:10:30;31.38;;;28.08;;
11066;SDS011;29763;50.904;5.530;2023-06-22T06:12:58;32.55;;;29.27;;
11066;SDS011;29763;50.904;5.530;2023-06-22T06:15:24;32.10;;;28.90;;
11066;SDS011;29763;50.904;5.530;2023-06-22T06:17:52;30.33;;;27.40;;
11066;SDS011;29763;50.904;5.530;2023-06-22T06:20:19;30.75;;;27.73;;
11066;SDS011;29763;50.904;5.530;2023-06-22T06:22:49;32.25;;;28.67;;
11066;SDS011;29763;50.904;5.530;2023-06-22T06:25:15;30.15;;;27.17;;
11066;SDS011;29763;50.904;5.530;2023-06-22T06:27:48;29.52;;;26.45;;
11066;SDS011;29763;50.904;5.530;2023-06-22T06:30:21;29.95;;;27.13;;
11066;SDS011;29763;50.904;5.530;2023-06-22T06:32:50;29.63;;;26.52;;
11066;SDS011;29763;50.904;5.530;2023-06-22T06:35:16;29.58;;;26.77;;
11066;SDS011;29763;50.904;5.530;2023-06-22T06:37:45;30.13;;;27.20;;
11066;SDS011;29763;50.904;5.530;2023-06-22T06:40:14;28.77;;;26.00;;
11066;SDS011;29763;50.904;5.530;2023-06-22T06:42:41;27.92;;;25.30;;
11066;SDS011;29763;50.904;5.530;2023-06-22T06:45:15;28.75;;;25.95;;
11066;SDS011;29763;50.904;5.530;2023-06-22T06:47:43;28.80;;;26.00;;
11066;SDS011;29763;50.904;5.530;2023-06-22T06:50:09;27.60;;;24.77;;
11066;SDS011;29763;50.904;5.530;2023-06-22T06:52:35;27.95;;;25.23;;
11066;SDS011;29763;50.904;5.530;2023-06-22T06:55:01;26.35;;;23.58;;
11066;SDS011;29763;50.904;5.530;2023-06-22T06:57:29;24.80;;;22.52;;
11066;SDS011;29763;50.904;5.530;2023-06-22T06:59:59;24.23;;;21.83;;
11066;SDS011;29763;50.904;5.530;2023-06-22T07:02:33;23.17;;;21.10;;
11066;SDS011;29763;50.904;5.530;2023-06-22T07:04:59;22.90;;;20.90;;
11066;SDS011;29763;50.904;5.530;2023-06-22T07:07:25;22.05;;;20.05;;
11066;SDS011;29763;50.904;5.530;2023-06-22T07:09:50;21.55;;;19.58;;
11066;SDS011;29763;50.904;5.530;2023-06-22T07:12:24;21.45;;;19.02;;
11066;SDS011;29763;50.904;5.530;2023-06-22T07:14:51;21.67;;;19.60;;
11066;SDS011;29763;50.904;5.530;2023-06-22T07:17:17;19.67;;;17.77;;
11066;SDS011;29763;50.904;5.530;2023-06-22T07:19:45;19.65;;;17.65;;
11066;SDS011;29763;50.904;5.530;2023-06-22T07:22:12;19.77;;;17.88;;
11066;SDS011;29763;50.904;5.530;2023-06-22T07:24:38;19.15;;;17.25;;
11066;SDS011;29763;50.904;5.530;2023-06-22T07:27:04;17.88;;;16.27;;
11066;SDS011;29763;50.904;5.530;2023-06-22T07:29:31;18.70;;;17.00;;
11066;SDS011;29763;50.904;5.530;2023-06-22T07:31:58;19.10;;;17.17;;
11066;SDS011;29763;50.904;5.530;2023-06-22T07:34:25;20.00;;;18.30;;
11066;SDS011;29763;50.904;5.530;2023-06-22T07:36:52;19.67;;;17.88;;
11066;SDS011;29763;50.904;5.530;2023-06-22T07:39:20;19.35;;;17.58;;
11066;SDS011;29763;50.904;5.530;2023-06-22T07:41:50;19.83;;;17.83;;
11066;SDS011;29763;50.904;5.530;2023-06-22T07:44:16;19.70;;;18.00;;
11066;SDS011;29763;50.904;5.530;2023-06-22T07:46:42;20.55;;;18.55;;
11066;SDS011;29763;50.904;5.530;2023-06-22T07:49:08;20.40;;;18.40;;
11066;SDS011;29763;50.904;5.530;2023-06-22T07:51:35;20.60;;;18.77;;
11066;SDS011;29763;50.904;5.530;2023-06-22T07:54:01;20.13;;;18.40;;
11066;SDS011;29763;50.904;5.530;2023-06-22T07:56:27;21.75;;;19.65;;
11066;SDS011;29763;50.904;5.530;2023-06-22T07:58:54;21.58;;;19.55;;
11066;SDS011;29763;50.904;5.530;2023-06-22T08:01:28;21.17;;;19.30;;
11066;SDS011;29763;50.904;5.530;2023-06-22T08:03:54;19.80;;;18.00;;
11066;SDS011;29763;50.904;5.530;2023-06-22T08:06:20;20.02;;;18.30;;
11066;SDS011;29763;50.904;5.530;2023-06-22T08:08:49;19.20;;;17.50;;
11066;SDS011;29763;50.904;5.530;2023-06-22T08:11:20;19.80;;;18.13;;
11066;SDS011;29763;50.904;5.530;2023-06-22T08:13:48;17.63;;;15.98;;
11066;SDS011;29763;50.904;5.530;2023-06-22T08:16:16;20.38;;;18.48;;
11066;SDS011;29763;50.904;5.530;2023-06-22T08:18:42;19.88;;;18.05;;
11066;SDS011;29763;50.904;5.530;2023-06-22T08:21:10;19.67;;;17.95;;
11066;SDS011;29763;50.904;5.530;2023-06-22T08:23:37;18.98;;;17.27;;
11066;SDS011;29763;50.904;5.530;2023-06-22T08:26:03;19.55;;;17.95;;
11066;SDS011;29763;50.904;5.530;2023-06-22T08:28:32;19.98;;;18.10;;
11066;SDS011;29763;50.904;5.530;2023-06-22T08:31:02;20.55;;;18.73;;
11066;SDS011;29763;50.904;5.530;2023-06-22T08:33:29;22.98;;;20.95;;
11066;SDS011;29763;50.904;5.530;2023-06-22T08:35:59;21.65;;;19.60;;
11066;SDS011;29763;50.904;5.530;2023-06-22T08:38:25;21.17;;;19.20;;
11066;SDS011;29763;50.904;5.530;2023-06-22T08:41:00;20.52;;;18.75;;
11066;SDS011;29763;50.904;5.530;2023-06-22T08:43:26;21.67;;;19.67;;
11066;SDS011;29763;50.904;5.530;2023-06-22T08:45:54;20.55;;;18.65;;
11066;SDS011;29763;50.904;5.530;2023-06-22T08:48:30;20.67;;;18.67;;
11066;SDS011;29763;50.904;5.530;2023-06-22T08:51:00;19.60;;;17.90;;
11066;SDS011;29763;50.904;5.530;2023-06-22T08:53:32;19.15;;;17.55;;
11066;SDS011;29763;50.904;5.530;2023-06-22T08:56:06;21.27;;;19.45;;
11066;SDS011;29763;50.904;5.530;2023-06-22T08:58:32;20.25;;;18.55;;
11066;SDS011;29763;50.904;5.530;2023-06-22T09:01:06;19.75;;;17.95;;
11066;SDS011;29763;50.904;5.530;2023-06-22T09:03:32;23.27;;;21.27;;
11066;SDS011;29763;50.904;5.530;2023-06-22T09:06:06;23.25;;;21.17;;
11066;SDS011;29763;50.904;5.530;2023-06-22T09:08:35;22.92;;;20.85;;
11066;SDS011;29763;50.904;5.530;2023-06-22T09:11:01;23.98;;;21.73;;
11066;SDS011;29763;50.904;5.530;2023-06-22T09:13:30;24.77;;;22.33;;
11066;SDS011;29763;50.904;5.530;2023-06-22T09:16:09;25.38;;;23.17;;
11066;SDS011;29763;50.904;5.530;2023-06-22T09:18:46;24.83;;;22.48;;
11066;SDS011;29763;50.904;5.530;2023-06-22T09:21:13;24.25;;;22.25;;
11066;SDS011;29763;50.904;5.530;2023-06-22T09:23:47;23.60;;;21.48;;
11066;SDS011;29763;50.904;5.530;2023-06-22T09:26:16;24.58;;;22.35;;
11066;SDS011;29763;50.904;5.530;2023-06-22T09:28:42;24.50;;;22.40;;
11066;SDS011;29763;50.904;5.530;2023-06-22T09:31:08;24.70;;;22.60;;
11066;SDS011;29763;50.904;5.530;2023-06-22T09:33:35;25.48;;;23.27;;
11066;SDS011;29763;50.904;5.530;2023-06-22T09:36:01;23.65;;;21.60;;
11066;SDS011;29763;50.904;5.530;2023-06-22T09:38:27;24.00;;;21.75;;
11066;SDS011;29763;50.904;5.530;2023-06-22T09:40:54;22.80;;;20.50;;
11066;SDS011;29763;50.904;5.530;2023-06-22T09:43:21;23.52;;;21.33;;
11066;SDS011;29763;50.904;5.530;2023-06-22T09:45:49;23.83;;;21.88;;
11066;SDS011;29763;50.904;5.530;2023-06-22T09:48:18;24.00;;;21.83;;
11066;SDS011;29763;50.904;5.530;2023-06-22T09:50:46;23.42;;;21.33;;
11066;SDS011;29763;50.904;5.530;2023-06-22T09:53:12;23.63;;;21.40;;
11066;SDS011;29763;50.904;5.530;2023-06-22T09:55:43;22.85;;;20.73;;
11066;SDS011;29763;50.904;5.530;2023-06-22T09:58:10;22.02;;;20.02;;
11066;SDS011;29763;50.904;5.530;2023-06-22T10:00:37;19.52;;;17.88;;
11066;SDS011;29763;50.904;5.530;2023-06-22T10:03:05;22.42;;;20.35;;
11066;SDS011;29763;50.904;5.530;2023-06-22T10:05:35;21.40;;;19.50;;
11066;SDS011;29763;50.904;5.530;2023-06-22T10:08:02;24.67;;;22.48;;
11066;SDS011;29763;50.904;5.530;2023-06-22T10:10:28;23.90;;;21.42;;
11066;SDS011;29763;50.904;5.530;2023-06-22T10:13:02;23.77;;;21.55;;
11066;SDS011;29763;50.904;5.530;2023-06-22T10:15:34;22.75;;;20.63;;
11066;SDS011;29763;50.904;5.530;2023-06-22T10:18:01;23.17;;;21.17;;
11066;SDS011;29763;50.904;5.530;2023-06-22T10:20:31;24.58;;;22.38;;
11066;SDS011;29763;50.904;5.530;2023-06-22T10:22:57;23.58;;;21.65;;
11066;SDS011;29763;50.904;5.530;2023-06-22T10:25:26;25.35;;;23.15;;
11066;SDS011;29763;50.904;5.530;2023-06-22T10:27:51;24.35;;;21.98;;
11066;SDS011;29763;50.904;5.530;2023-06-22T10:30:19;26.52;;;24.13;;
11066;SDS011;29763;50.904;5.530;2023-06-22T10:32:47;27.30;;;24.67;;
11066;SDS011;29763;50.904;5.530;2023-06-22T10:35:18;29.08;;;26.35;;
11066;SDS011;29763;50.904;5.530;2023-06-22T10:37:44;28.38;;;26.00;;
11066;SDS011;29763;50.904;5.530;2023-06-22T10:40:14;28.45;;;25.75;;
11066;SDS011;29763;50.904;5.530;2023-06-22T10:42:47;29.60;;;26.90;;
11066;SDS011;29763;50.904;5.530;2023-06-22T10:45:21;32.05;;;29.23;;
11066;SDS011;29763;50.904;5.530;2023-06-22T10:48:02;36.35;;;33.17;;
11066;SDS011;29763;50.904;5.530;2023-06-22T10:50:34;37.42;;;33.83;;
11066;SDS011;29763;50.904;5.530;2023-06-22T10:53:00;38.85;;;35.30;;
11066;SDS011;29763;50.904;5.530;2023-06-22T10:55:28;36.55;;;33.17;;
11066;SDS011;29763;50.904;5.530;2023-06-22T10:57:54;34.85;;;31.65;;
11066;SDS011;29763;50.904;5.530;2023-06-22T11:00:34;33.25;;;29.98;;
11066;SDS011;29763;50.904;5.530;2023-06-22T11:03:08;33.90;;;30.65;;
11066;SDS011;29763;50.904;5.530;2023-06-22T11:05:37;34.75;;;31.45;;
11066;SDS011;29763;50.904;5.530;2023-06-22T11:08:03;35.60;;;32.30;;
11066;SDS011;29763;50.904;5.530;2023-06-22T11:10:43;34.03;;;31.02;;
11066;SDS011;29763;50.904;5.530;2023-06-22T11:13:12;34.60;;;31.65;;
11066;SDS011;29763;50.904;5.530;2023-06-22T11:15:39;35.40;;;32.25;;
11066;SDS011;29763;50.904;5.530;2023-06-22T11:18:12;34.00;;;30.92;;
11066;SDS011;29763;50.904;5.530;2023-06-22T11:20:52;33.78;;;30.77;;
11066;SDS011;29763;50.904;5.530;2023-06-22T11:23:27;33.30;;;30.23;;
11066;SDS011;29763;50.904;5.530;2023-06-22T11:25:54;32.08;;;29.17;;
11066;SDS011;29763;50.904;5.530;2023-06-22T11:28:30;31.92;;;28.75;;
11066;SDS011;29763;50.904;5.530;2023-06-22T11:31:06;33.42;;;30.38;;
11066;SDS011;29763;50.904;5.530;2023-06-22T11:33:33;33.45;;;30.48;;
11066;SDS011;29763;50.904;5.530;2023-06-22T11:36:05;33.30;;;30.42;;
11066;SDS011;29763;50.904;5.530;2023-06-22T11:38:32;32.95;;;29.75;;
11066;SDS011;29763;50.904;5.530;2023-06-22T11:40:58;34.58;;;31.50;;
11066;SDS011;29763;50.904;5.530;2023-06-22T11:43:29;34.70;;;31.63;;
11066;SDS011;29763;50.904;5.530;2023-06-22T11:45:54;34.65;;;31.65;;
11066;SDS011;29763;50.904;5.530;2023-06-22T11:48:22;35.22;;;32.03;;
11066;SDS011;29763;50.904;5.530;2023-06-22T11:50:51;36.47;;;33.13;;
11066;SDS011;29763;50.904;5.530;2023-06-22T11:53:27;37.22;;;34.03;;
11066;SDS011;29763;50.904;5.530;2023-06-22T11:55:56;36.47;;;33.08;;
11066;SDS011;29763;50.904;5.530;2023-06-22T11:58:42;36.58;;;33.28;;
11066;SDS011;29763;50.904;5.530;2023-06-22T12:01:07;37.83;;;34.42;;
11066;SDS011;29763;50.904;5.530;2023-06-22T12:03:33;38.63;;;34.88;;
11066;SDS011;29763;50.904;5.530;2023-06-22T12:06:02;38.78;;;35.17;;
11066;SDS011;29763;50.904;5.530;2023-06-22T12:08:32;37.80;;;34.20;;
11066;SDS011;29763;50.904;5.530;2023-06-22T12:11:03;39.42;;;35.83;;
11066;SDS011;29763;50.904;5.530;2023-06-22T12:13:31;39.38;;;35.30;;
11066;SDS011;29763;50.904;5.530;2023-06-22T12:15:58;38.53;;;35.00;;
11066;SDS011;29763;50.904;5.530;2023-06-22T12:18:27;38.35;;;34.70;;
11066;SDS011;29763;50.904;5.530;2023-06-22T12:21:15;38.00;;;34.53;;
11066;SDS011;29763;50.904;5.530;2023-06-22T12:24:05;36.10;;;32.90;;
11066;SDS011;29763;50.904;5.530;2023-06-22T12:26:32;37.47;;;34.00;;
11066;SDS011;29763;50.904;5.530;2023-06-22T12:29:07;38.85;;;35.25;;
11066;SDS011;29763;50.904;5.530;2023-06-22T12:31:52;38.08;;;34.58;;
11066;SDS011;29763;50.904;5.530;2023-06-22T12:34:17;38.30;;;34.67;;
11066;SDS011;29763;50.904;5.530;2023-06-22T12:36:46;38.28;;;34.78;;
11066;SDS011;29763;50.904;5.530;2023-06-22T12:39:26;39.95;;;36.28;;
11066;SDS011;29763;50.904;5.530;2023-06-22T12:42:01;41.28;;;37.28;;
11066;SDS011;29763;50.904;5.530;2023-06-22T12:44:39;41.72;;;37.75;;
11066;SDS011;29763;50.904;5.530;2023-06-22T12:47:10;41.67;;;37.88;;
11066;SDS011;29763;50.904;5.530;2023-06-22T12:49:39;42.42;;;38.53;;
11066;SDS011;29763;50.904;5.530;2023-06-22T12:52:10;43.85;;;39.75;;
11066;SDS011;29763;50.904;5.530;2023-06-22T12:54:40;43.40;;;39.15;;
11066;SDS011;29763;50.904;5.530;2023-06-22T12:57:16;43.05;;;39.05;;
11066;SDS011;29763;50.904;5.530;2023-06-22T12:59:42;45.10;;;40.70;;
11066;SDS011;29763;50.904;5.530;2023-06-22T13:05:19;45.35;;;41.05;;
11066;SDS011;29763;50.904;5.530;2023-06-22T13:07:49;45.78;;;41.38;;
11066;SDS011;29763;50.904;5.530;2023-06-22T13:10:14;45.47;;;41.10;;
11066;SDS011;29763;50.904;5.530;2023-06-22T13:12:43;44.33;;;40.13;;
11066;SDS011;29763;50.904;5.530;2023-06-22T13:15:09;44.92;;;40.83;;
11066;SDS011;29763;50.904;5.530;2023-06-22T13:17:37;46.40;;;42.00;;
11066;SDS011;29763;50.904;5.530;2023-06-22T13:20:03;44.15;;;40.05;;
11066;SDS011;29763;50.904;5.530;2023-06-22T13:22:33;45.53;;;41.30;;
11066;SDS011;29763;50.904;5.530;2023-06-22T13:25:08;43.63;;;39.53;;
11066;SDS011;29763;50.904;5.530;2023-06-22T13:27:47;41.95;;;37.97;;
11066;SDS011;29763;50.904;5.530;2023-06-22T13:30:15;39.85;;;36.22;;
11066;SDS011;29763;50.904;5.530;2023-06-22T13:32:43;41.25;;;37.58;;
11066;SDS011;29763;50.904;5.530;2023-06-22T13:35:10;41.15;;;37.17;;
11066;SDS011;29763;50.904;5.530;2023-06-22T13:37:38;38.25;;;34.45;;
11066;SDS011;29763;50.904;5.530;2023-06-22T13:40:05;37.28;;;33.80;;
11066;SDS011;29763;50.904;5.530;2023-06-22T13:42:33;35.55;;;32.35;;
11066;SDS011;29763;50.904;5.530;2023-06-22T13:44:59;33.58;;;30.48;;
11066;SDS011;29763;50.904;5.530;2023-06-22T13:47:25;34.33;;;31.13;;
11066;SDS011;29763;50.904;5.530;2023-06-22T13:49:51;33.03;;;29.98;;
11066;SDS011;29763;50.904;5.530;2023-06-22T13:52:22;34.17;;;30.88;;
11066;SDS011;29763;50.904;5.530;2023-06-22T13:55:11;31.13;;;28.23;;
11066;SDS011;29763;50.904;5.530;2023-06-22T13:57:42;32.80;;;29.70;;
11066;SDS011;29763;50.904;5.530;2023-06-22T14:00:19;32.50;;;29.50;;
11066;SDS011;29763;50.904;5.530;2023-06-22T14:02:57;34.22;;;30.95;;
11066;SDS011;29763;50.904;5.530;2023-06-22T14:05:35;36.22;;;32.78;;
11066;SDS011;29763;50.904;5.530;2023-06-22T14:08:11;35.75;;;32.30;;
11066;SDS011;29763;50.904;5.530;2023-06-22T14:10:37;37.05;;;33.45;;
11066;SDS011;29763;50.904;5.530;2023-06-22T14:13:07;36.47;;;32.97;;
11066;SDS011;29763;50.904;5.530;2023-06-22T14:15:56;37.38;;;33.70;;
11066;SDS011;29763;50.904;5.530;2023-06-22T14:18:28;37.92;;;34.03;;
11066;SDS011;29763;50.904;5.530;2023-06-22T14:21:02;36.50;;;32.92;;
11066;SDS011;29763;50.904;5.530;2023-06-22T14:23:28;37.88;;;34.03;;
11066;SDS011;29763;50.904;5.530;2023-06-22T14:26:04;38.80;;;35.08;;
11066;SDS011;29763;50.904;5.530;2023-06-22T14:28:36;38.08;;;34.42;;
11066;SDS011;29763;50.904;5.530;2023-06-22T14:31:25;37.20;;;33.38;;
11066;SDS011;29763;50.904;5.530;2023-06-22T14:33:59;37.47;;;33.97;;
11066;SDS011;29763;50.904;5.530;2023-06-22T14:36:28;40.03;;;36.22;;
11066;SDS011;29763;50.904;5.530;2023-06-22T14:38:56;38.60;;;35.00;;
11066;SDS011;29763;50.904;5.530;2023-06-22T14:41:24;38.95;;;35.03;;
11066;SDS011;29763;50.904;5.530;2023-06-22T14:44:01;41.42;;;37.55;;
11066;SDS011;29763;50.904;5.530;2023-06-22T14:46:32;39.13;;;35.42;;
11066;SDS011;29763;50.904;5.530;2023-06-22T14:49:05;41.85;;;37.83;;
11066;SDS011;29763;50.904;5.530;2023-06-22T14:51:46;42.05;;;38.13;;
11066;SDS011;29763;50.904;5.530;2023-06-22T14:54:13;41.05;;;37.10;;
11066;SDS011;29763;50.904;5.530;2023-06-22T14:56:43;40.40;;;36.63;;